Time;durP1;ratioP1;P1;durP2;ratioP2;P2;SDS_P1;SDS_P2;PMS_P1;PMS_P2;Temp;Humidity;BMP_temperature;BMP_pressure;BME280_temperature;BME280_humidity;BME280_pressure;Samples;Min_cycle;Max_cycle;Signal;HPM_P1;HPM_P2
2021/12/02 00:02:22;;;;;;;3.35;0.65;;;26.10;99.90;;;;;;5019354;28;20104;-65
2021/12/02 00:04:50;;;;;;;2.15;0.40;;;26.20;99.90;;;;;;5018864;28;20048;-65
2021/12/02 00:07:17;;;;;;;3.58;0.55;;;26.30;99.90;;;;;;5020425;28;20033;-68
2021/12/02 00:09:45;;;;;;;3.85;0.60;;;26.40;99.90;;;;;;5017960;28;20517;-70
2021/12/02 00:12:13;;;;;;;3.47;0.43;;;26.30;99.90;;;;;;5020180;28;20040;-67
2021/12/02 00:14:45;;;;;;;3.88;0.50;;;26.30;99.90;;;;;;5018536;28;20017;-67
2021/12/02 00:17:53;;;;;;;2.85;0.55;;;26.30;99.90;;;;;;5019497;28;20498;-69
2021/12/02 00:23:01;;;;;;;4.80;0.75;;;26.50;99.90;;;;;;5018063;28;20087;-71
2021/12/02 00:25:28;;;;;;;2.63;0.60;;;26.60;99.90;;;;;;5019417;28;20112;-66
2021/12/02 00:27:57;;;;;;;2.65;0.70;;;26.60;99.90;;;;;;5018163;28;20571;-70
2021/12/02 00:30:24;;;;;;;4.00;0.70;;;26.80;99.90;;;;;;5020043;28;20172;-67
2021/12/02 00:32:56;;;;;;;3.22;0.70;;;26.90;99.90;;;;;;5016566;28;20036;-72
2021/12/02 00:35:24;;;;;;;4.53;0.90;;;26.90;99.90;;;;;;5019690;28;20104;-68
2021/12/02 00:37:52;;;;;;;3.72;0.73;;;27.00;99.90;;;;;;5017472;28;20043;-70
2021/12/02 00:40:19;;;;;;;3.42;0.50;;;27.10;99.90;;;;;;5019377;28;20040;-70
2021/12/02 00:42:47;;;;;;;3.92;0.70;;;27.00;99.90;;;;;;5016992;28;20065;-66
2021/12/02 00:45:15;;;;;;;3.58;0.30;;;27.00;99.90;;;;;;5019488;28;20072;-65
2021/12/02 00:47:43;;;;;;;2.60;0.43;;;27.10;99.90;;;;;;5018927;28;20474;-66
2021/12/02 00:50:10;;;;;;;2.53;0.93;;;27.10;99.90;;;;;;5019074;28;20017;-69
2021/12/02 00:52:41;;;;;;;2.40;0.40;;;27.20;99.90;;;;;;5019398;28;20025;-66
2021/12/02 00:55:09;;;;;;;2.85;0.60;;;27.20;99.90;;;;;;5018202;28;20013;-68
2021/12/02 00:57:40;;;;;;;4.38;0.68;;;27.20;99.90;;;;;;5019324;28;20079;-69
2021/12/02 01:00:08;;;;;;;2.28;0.40;;;27.20;99.90;;;;;;5017565;28;20018;-68
2021/12/02 01:02:37;;;;;;;3.42;0.50;;;27.20;99.90;;;;;;5019466;28;20032;-69
2021/12/02 01:05:05;;;;;;;4.80;0.73;;;27.10;99.90;;;;;;5017292;28;20029;-69
2021/12/02 01:07:33;;;;;;;1.02;0.50;;;27.10;99.90;;;;;;5019604;28;20033;-70
2021/12/02 01:10:01;;;;;;;3.28;0.60;;;27.30;99.90;;;;;;5017437;28;20056;-69
2021/12/02 01:12:28;;;;;;;4.97;0.60;;;27.30;99.90;;;;;;5019379;28;20044;-70
2021/12/02 01:14:55;;;;;;;3.33;0.50;;;27.40;99.90;;;;;;5016479;28;20032;-71
2021/12/02 01:17:22;;;;;;;2.25;0.40;;;27.50;99.90;;;;;;5019043;28;20037;-68
2021/12/02 01:19:50;;;;;;;3.22;0.50;;;27.60;99.80;;;;;;5017808;28;20025;-71
2021/12/02 01:22:18;;;;;;;1.33;0.50;;;27.70;99.50;;;;;;5019180;28;20104;-71
2021/12/02 01:24:49;;;;;;;2.42;0.40;;;27.60;99.90;;;;;;5019128;28;20463;-71
2021/12/02 01:27:21;;;;;;;3.22;0.50;;;27.90;99.90;;;;;;5018368;28;20105;-71
2021/12/02 01:29:52;;;;;;;2.97;0.40;;;28.10;98.60;;;;;;5018580;28;20033;-71
2021/12/02 01:32:21;;;;;;;2.55;0.60;;;28.00;98.90;;;;;;5018226;28;20056;-73
2021/12/02 01:34:50;;;;;;;3.85;0.65;;;28.00;98.60;;;;;;5018337;28;20482;-67
2021/12/02 01:37:18;;;;;;;3.55;0.93;;;28.00;98.40;;;;;;5017718;28;20124;-72
2021/12/02 01:39:48;;;;;;;2.97;0.45;;;27.90;98.60;;;;;;5018357;28;20022;-72
2021/12/02 01:42:27;;;;;;;2.08;0.57;;;28.00;98.00;;;;;;5017764;28;20044;-66
2021/12/02 01:44:56;;;;;;;4.30;1.10;;;27.80;98.70;;;;;;5018325;28;20073;-66
2021/12/02 01:47:29;;;;;;;1.95;0.82;;;28.20;98.80;;;;;;5017518;28;20062;-67
2021/12/02 01:50:01;;;;;;;5.03;0.88;;;28.50;98.10;;;;;;5016841;28;20496;-67
2021/12/02 01:52:31;;;;;;;1.98;0.80;;;28.60;98.20;;;;;;5017107;28;20070;-66
2021/12/02 01:55:14;;;;;;;4.40;0.80;;;28.60;98.30;;;;;;5016984;28;20030;-68
2021/12/02 01:57:50;;;;;;;2.33;1.00;;;28.70;97.60;;;;;;5017924;28;20034;-65
2021/12/02 02:00:20;;;;;;;3.72;1.38;;;29.00;97.60;;;;;;5016692;28;20026;-66
2021/12/02 02:02:48;;;;;;;3.05;0.65;;;29.10;97.70;;;;;;5016862;28;20703;-66
2021/12/02 02:05:17;;;;;;;4.70;0.82;;;29.00;97.20;;;;;;5015729;28;20088;-67
2021/12/02 02:08:04;;;;;;;4.78;1.10;;;28.80;97.10;;;;;;5016693;28;20095;-65
2021/12/02 02:10:36;;;;;;;3.25;0.63;;;28.80;97.30;;;;;;5016699;28;20033;-66
2021/12/02 02:13:07;;;;;;;3.72;1.25;;;28.50;97.30;;;;;;5017040;28;20029;-65
2021/12/02 02:15:34;;;;;;;4.82;0.80;;;28.50;97.90;;;;;;5016942;28;20034;-66
2021/12/02 02:21:08;;;;;;;4.75;1.00;;;28.40;98.60;;;;;;5005224;28;20041;-65
2021/12/02 02:23:47;;;;;;;3.08;0.63;;;28.40;99.10;;;;;;5017190;28;20090;-65
2021/12/02 02:26:16;;;;;;;6.15;0.73;;;28.40;97.80;;;;;;5017362;28;20022;-64
2021/12/02 02:28:44;;;;;;;3.33;1.00;;;28.40;98.70;;;;;;5017705;28;20061;-67
2021/12/02 02:31:11;;;;;;;5.53;0.80;;;28.60;97.80;;;;;;5017292;28;20045;-68
2021/12/02 02:33:39;;;;;;;8.57;0.77;;;28.90;98.40;;;;;;5017651;28;20025;-70
2021/12/02 02:36:08;;;;;;;4.40;0.70;;;29.10;97.70;;;;;;5012982;28;20688;-66
2021/12/02 02:38:37;;;;;;;5.13;0.80;;;29.00;97.70;;;;;;5015296;28;20117;-65
2021/12/02 02:41:06;;;;;;;2.97;0.70;;;28.70;98.00;;;;;;5016496;28;20455;-66
2021/12/02 02:43:34;;;;;;;5.30;0.80;;;28.80;98.20;;;;;;5016458;28;20110;-65
2021/12/02 02:46:02;;;;;;;2.53;1.05;;;29.10;98.40;;;;;;5016870;28;20022;-69
2021/12/02 02:48:31;;;;;;;6.45;0.82;;;29.20;97.90;;;;;;5017291;28;21088;-68
2021/12/02 02:50:58;;;;;;;6.07;1.60;;;29.40;97.00;;;;;;5017187;28;20026;-66
2021/12/02 02:53:26;;;;;;;2.38;0.63;;;29.40;96.50;;;;;;5016172;28;20139;-67
2021/12/02 02:56:08;;;;;;;4.50;0.93;;;29.30;96.60;;;;;;5016410;28;20116;-70
2021/12/02 02:58:51;;;;;;;4.90;1.10;;;29.50;96.20;;;;;;5017518;28;20045;-70
2021/12/02 03:06:56;;;;;;;5.30;0.90;;;30.50;94.10;;;;;;5037929;28;20409;-66
2021/12/02 03:17:24;;;;;;;5.05;0.80;;;31.30;92.10;;;;;;5002050;28;20057;-68
2021/12/02 03:19:51;;;;;;;3.90;0.80;;;31.30;91.70;;;;;;5016820;28;20021;-69
2021/12/02 03:22:18;;;;;;;4.22;1.02;;;31.80;90.80;;;;;;5019750;28;20070;-66
2021/12/02 03:24:45;;;;;;;4.40;1.20;;;31.90;90.10;;;;;;5019913;28;20017;-66
2021/12/02 03:27:14;;;;;;;3.08;0.57;;;31.50;90.40;;;;;;5020726;28;20029;-67
2021/12/02 03:29:41;;;;;;;2.70;0.93;;;31.40;89.00;;;;;;5018847;28;20703;-66
2021/12/02 03:32:12;;;;;;;5.32;0.80;;;31.60;89.80;;;;;;5020508;28;20033;-67
2021/12/02 03:34:40;;;;;;;3.80;0.50;;;31.50;89.40;;;;;;5019337;28;20104;-65
2021/12/02 03:37:09;;;;;;;5.10;1.02;;;31.80;88.90;;;;;;5020679;28;20045;-66
2021/12/02 03:39:36;;;;;;;3.03;0.57;;;31.90;88.40;;;;;;5021315;28;20032;-66
2021/12/02 03:42:05;;;;;;;4.20;0.70;;;31.70;88.20;;;;;;5019225;28;20167;-69
2021/12/02 03:44:33;;;;;;;3.10;0.63;;;31.90;87.20;;;;;;5017756;28;20083;-69
2021/12/02 03:47:01;;;;;;;1.80;0.60;;;32.00;87.80;;;;;;5012375;28;20021;-68
2021/12/02 03:49:28;;;;;;;3.85;0.73;;;32.00;87.20;;;;;;5021329;28;20028;-68
2021/12/02 03:51:55;;;;;;;3.65;0.50;;;31.80;87.30;;;;;;5018210;28;20432;-67
2021/12/02 03:54:23;;;;;;;2.70;0.40;;;32.00;86.00;;;;;;5020806;28;20022;-66
2021/12/02 03:56:50;;;;;;;2.40;0.50;;;32.00;85.70;;;;;;5018530;28;20454;-66
2021/12/02 03:59:18;;;;;;;3.58;0.50;;;31.90;85.10;;;;;;5020221;28;20032;-66
2021/12/02 04:01:45;;;;;;;4.50;0.70;;;32.20;84.40;;;;;;5011132;28;20510;-69
2021/12/02 04:04:12;;;;;;;1.85;0.65;;;32.00;84.10;;;;;;4998740;28;20034;-69
2021/12/02 04:06:40;;;;;;;4.68;0.52;;;32.40;85.00;;;;;;5000165;28;20037;-66
2021/12/02 04:09:15;;;;;;;3.58;0.70;;;32.50;82.90;;;;;;4998222;28;20426;-66
2021/12/02 04:16:52;;;;;;;3.45;0.45;;;32.30;82.20;;;;;;5020364;28;20080;-67
2021/12/02 04:19:22;;;;;;;2.95;0.80;;;32.00;83.80;;;;;;5019092;28;20026;-67
2021/12/02 04:21:50;;;;;;;2.72;0.68;;;32.00;84.60;;;;;;5019110;28;20023;-67
2021/12/02 04:24:18;;;;;;;2.03;0.57;;;31.90;84.70;;;;;;5019150;28;20025;-67
2021/12/02 04:26:45;;;;;;;4.55;0.68;;;31.90;83.20;;;;;;5020271;28;20101;-67
2021/12/02 04:29:13;;;;;;;4.22;0.70;;;31.80;83.60;;;;;;5016834;28;20502;-66
2021/12/02 04:31:45;;;;;;;3.53;0.68;;;31.70;83.70;;;;;;5020322;28;20017;-66
2021/12/02 04:34:13;;;;;;;1.80;0.50;;;31.50;83.30;;;;;;5015645;28;20018;-70
2021/12/02 04:36:41;;;;;;;1.48;0.40;;;31.90;83.00;;;;;;5020343;28;20091;-66
2021/12/02 04:39:08;;;;;;;2.67;0.57;;;31.80;79.60;;;;;;5023007;28;20481;-68
2021/12/02 04:41:35;;;;;;;2.08;0.40;;;31.60;81.70;;;;;;5022649;28;20080;-65
2021/12/02 04:44:04;;;;;;;3.35;0.60;;;31.90;80.60;;;;;;5018948;28;20021;-64
2021/12/02 04:46:31;;;;;;;2.67;0.60;;;32.00;78.80;;;;;;5024321;28;20021;-65
2021/12/02 04:48:59;;;;;;;6.25;2.65;;;31.80;77.80;;;;;;5025725;28;20025;-65
2021/12/02 04:51:26;;;;;;;1.55;0.50;;;31.40;78.90;;;;;;5016818;28;20033;-66
2021/12/02 04:53:54;;;;;;;1.08;0.32;;;31.80;78.70;;;;;;5010691;28;20378;-70
2021/12/02 04:56:22;;;;;;;2.42;0.30;;;32.40;75.30;;;;;;5011969;28;20065;-67
2021/12/02 04:58:49;;;;;;;1.50;0.30;;;32.00;76.00;;;;;;5014641;28;20120;-67
2021/12/02 05:01:17;;;;;;;3.15;0.93;;;32.10;76.60;;;;;;5011734;28;20025;-72
2021/12/02 05:03:44;;;;;;;1.23;0.40;;;32.00;76.90;;;;;;5014913;28;20429;-66
2021/12/02 05:06:11;;;;;;;1.55;0.47;;;32.20;77.00;;;;;;5013544;28;20502;-67
2021/12/02 05:08:38;;;;;;;2.53;0.50;;;32.20;76.00;;;;;;5013550;28;20113;-66
2021/12/02 05:11:06;;;;;;;1.67;0.45;;;31.80;76.10;;;;;;5014517;28;20017;-65
2021/12/02 05:13:33;;;;;;;2.83;0.30;;;31.70;76.50;;;;;;5014364;28;20021;-69
2021/12/02 05:16:01;;;;;;;1.85;0.40;;;31.40;77.60;;;;;;5019220;28;20386;-67
2021/12/02 05:18:28;;;;;;;1.23;0.30;;;31.30;76.80;;;;;;5017604;28;20482;-66
2021/12/02 05:20:57;;;;;;;2.50;0.30;;;31.30;76.70;;;;;;5019022;28;20021;-68
2021/12/02 05:23:24;;;;;;;3.33;1.02;;;31.10;75.70;;;;;;5017610;28;20021;-66
2021/12/02 05:25:52;;;;;;;0.80;0.25;;;30.80;76.20;;;;;;5017692;28;20029;-64
2021/12/02 05:28:19;;;;;;;0.77;0.30;;;30.40;78.40;;;;;;5018659;28;20490;-65
2021/12/02 05:30:47;;;;;;;1.73;0.50;;;30.50;78.30;;;;;;5016536;28;20030;-67
2021/12/02 05:33:15;;;;;;;1.60;0.40;;;30.40;78.50;;;;;;5019333;28;20021;-65
2021/12/02 05:35:43;;;;;;;2.90;0.47;;;30.30;79.40;;;;;;5015619;28;20025;-65
2021/12/02 05:38:10;;;;;;;4.10;0.80;;;30.20;80.10;;;;;;5019284;28;20394;-65
2021/12/02 05:40:38;;;;;;;2.10;0.50;;;30.10;79.40;;;;;;5015728;28;20030;-66
2021/12/02 05:43:05;;;;;;;2.40;0.30;;;30.30;78.70;;;;;;5018609;28;20072;-68
2021/12/02 05:45:32;;;;;;;2.95;0.38;;;29.90;79.40;;;;;;5018759;28;20482;-69
2021/12/02 05:48:00;;;;;;;1.35;0.30;;;29.90;79.10;;;;;;5020979;28;20064;-67
2021/12/02 05:50:27;;;;;;;2.28;0.63;;;29.80;80.60;;;;;;5013591;28;20029;-66
2021/12/02 05:52:54;;;;;;;1.98;0.45;;;29.40;81.30;;;;;;5009832;28;20033;-66
2021/12/02 05:55:22;;;;;;;1.55;0.60;;;29.20;82.50;;;;;;5015039;28;20041;-66
2021/12/02 05:57:49;;;;;;;1.58;0.30;;;28.90;82.70;;;;;;5008588;28;20793;-66
2021/12/02 06:00:17;;;;;;;2.05;0.30;;;28.50;83.50;;;;;;5013773;28;20083;-67
2021/12/02 06:02:45;;;;;;;4.28;0.65;;;28.40;84.30;;;;;;5010981;28;20032;-64
2021/12/02 06:05:16;;;;;;;3.88;0.40;;;28.40;85.80;;;;;;5013240;28;20100;-67
2021/12/02 06:07:44;;;;;;;4.53;0.70;;;28.10;86.20;;;;;;5011079;28;20458;-67
2021/12/02 06:10:12;;;;;;;1.80;0.22;;;28.10;87.00;;;;;;5013162;28;20445;-67
2021/12/02 06:12:39;;;;;;;1.60;0.40;;;27.90;87.40;;;;;;5011594;28;20418;-67
2021/12/02 06:15:08;;;;;;;2.38;0.40;;;27.70;88.40;;;;;;5013724;28;20033;-67
2021/12/02 06:17:38;;;;;;;2.88;0.50;;;27.80;89.10;;;;;;5012554;28;20049;-68
2021/12/02 06:20:07;;;;;;;0.82;0.20;;;28.00;89.30;;;;;;5012781;28;20025;-66
2021/12/02 06:22:35;;;;;;;1.30;0.43;;;27.90;89.40;;;;;;5012659;28;20194;-68
2021/12/02 06:25:43;;;;;;;2.35;0.35;;;27.60;90.30;;;;;;5011977;28;20261;-67
2021/12/02 06:27:53;;;;;;;1.05;0.30;;;27.50;90.60;;;;;;5010901;28;20064;-66
2021/12/02 06:30:24;;;;;;;3.95;0.50;;;27.50;91.00;;;;;;5013998;28;21051;-67
2021/12/02 06:32:51;;;;;;;1.55;0.40;;;27.40;90.90;;;;;;5011060;28;20033;-66
2021/12/02 06:35:19;;;;;;;1.88;0.40;;;27.40;91.50;;;;;;5013154;28;20018;-65
2021/12/02 06:37:47;;;;;;;2.35;0.80;;;27.30;91.70;;;;;;5009407;28;20045;-66
2021/12/02 06:40:16;;;;;;;2.83;0.50;;;27.10;91.70;;;;;;5012629;28;20026;-68
2021/12/02 06:42:43;;;;;;;1.40;0.38;;;27.00;92.20;;;;;;5010939;28;21003;-65
2021/12/02 06:45:12;;;;;;;1.58;0.68;;;26.90;92.30;;;;;;5012869;28;20030;-65
2021/12/02 06:47:41;;;;;;;3.30;0.50;;;26.90;92.50;;;;;;5012312;28;20029;-66
2021/12/02 06:50:17;;;;;;;2.55;0.50;;;27.00;92.30;;;;;;5011469;28;20025;-65
2021/12/02 06:52:49;;;;;;;2.95;0.55;;;26.90;92.50;;;;;;5011317;28;20033;-71
2021/12/02 06:55:17;;;;;;;1.80;0.38;;;26.90;92.30;;;;;;5013232;28;20362;-67
2021/12/02 06:57:44;;;;;;;4.25;0.60;;;26.80;92.00;;;;;;5013855;28;20050;-66
2021/12/02 07:00:14;;;;;;;3.00;0.40;;;26.60;92.40;;;;;;5016395;28;20025;-69
2021/12/02 07:02:43;;;;;;;2.00;0.50;;;26.40;93.00;;;;;;5016706;28;20061;-68
2021/12/02 07:05:13;;;;;;;1.77;0.60;;;26.40;93.00;;;;;;5015686;28;20116;-67
2021/12/02 07:07:41;;;;;;;2.22;0.40;;;26.20;93.20;;;;;;5017141;28;20116;-65
2021/12/02 07:10:18;;;;;;;3.00;0.45;;;26.00;93.50;;;;;;5015209;28;20068;-70
2021/12/02 07:12:50;;;;;;;1.70;0.40;;;25.90;93.90;;;;;;5015426;28;20112;-69
2021/12/02 07:15:26;;;;;;;2.40;0.68;;;25.80;94.20;;;;;;5013400;28;20037;-66
2021/12/02 07:17:58;;;;;;;1.95;0.50;;;25.80;94.00;;;;;;5013279;28;20046;-65
2021/12/02 07:20:35;;;;;;;1.58;0.47;;;25.90;94.20;;;;;;5015562;28;20025;-66
2021/12/02 07:23:03;;;;;;;1.52;0.40;;;25.80;94.70;;;;;;5014255;28;20030;-67
2021/12/02 07:25:32;;;;;;;3.80;0.40;;;25.70;94.90;;;;;;5015670;28;20460;-68
2021/12/02 07:28:00;;;;;;;3.50;0.63;;;25.50;95.10;;;;;;5012514;28;20123;-65
2021/12/02 07:30:27;;;;;;;1.95;0.40;;;25.60;95.50;;;;;;5015446;28;20028;-66
2021/12/02 07:32:57;;;;;;;2.35;0.70;;;25.60;95.30;;;;;;5013410;28;20738;-67
2021/12/02 07:35:26;;;;;;;2.47;0.57;;;25.50;95.20;;;;;;5015550;28;20037;-68
2021/12/02 07:37:56;;;;;;;4.40;0.90;;;25.10;96.20;;;;;;5013647;28;20045;-74
2021/12/02 07:40:25;;;;;;;2.55;0.85;;;24.90;97.20;;;;;;5014860;28;20032;-70
2021/12/02 07:42:54;;;;;;;4.22;0.95;;;24.80;97.80;;;;;;5014574;28;20120;-69
2021/12/02 07:45:24;;;;;;;2.50;1.00;;;24.70;98.30;;;;;;5015990;28;20387;-68
2021/12/02 07:47:51;;;;;;;5.00;0.60;;;24.70;98.50;;;;;;5015660;28;20053;-67
2021/12/02 07:50:19;;;;;;;2.03;0.80;;;24.60;98.70;;;;;;5015386;28;20017;-68
2021/12/02 07:52:54;;;;;;;2.33;0.88;;;24.40;99.30;;;;;;5016223;28;20486;-65
2021/12/02 07:55:24;;;;;;;3.60;1.00;;;24.30;99.70;;;;;;5014723;28;20025;-67
2021/12/02 07:57:52;;;;;;;3.30;0.75;;;24.20;99.90;;;;;;5010177;28;20128;-68
2021/12/02 08:00:25;;;;;;;3.50;0.77;;;24.20;99.90;;;;;;5010855;28;20466;-65
2021/12/02 08:02:55;;;;;;;3.85;0.85;;;24.20;99.90;;;;;;5010623;28;20037;-71
2021/12/02 08:05:23;;;;;;;2.20;0.75;;;24.10;99.90;;;;;;5010830;28;20148;-67
2021/12/02 08:07:52;;;;;;;3.53;1.02;;;24.10;99.90;;;;;;5010814;28;20033;-68
2021/12/02 08:10:20;;;;;;;3.92;0.80;;;24.00;99.90;;;;;;5008651;28;20064;-68
2021/12/02 08:12:49;;;;;;;4.28;1.30;;;24.00;99.90;;;;;;5011371;28;20029;-69
2021/12/02 08:15:20;;;;;;;7.10;1.25;;;23.90;99.90;;;;;;5008818;28;20021;-69
2021/12/02 08:17:48;;;;;;;3.88;0.90;;;23.90;99.90;;;;;;5011210;28;20037;-67
2021/12/02 08:20:16;;;;;;;2.67;0.57;;;23.90;99.90;;;;;;5007553;28;20018;-70
2021/12/02 08:22:44;;;;;;;2.20;0.60;;;23.90;99.90;;;;;;5010999;28;20525;-72
2021/12/02 08:25:11;;;;;;;6.28;1.00;;;23.90;99.90;;;;;;5009778;28;20033;-68
2021/12/02 08:27:40;;;;;;;2.60;0.93;;;23.80;99.90;;;;;;5010123;28;20120;-68
2021/12/02 08:30:11;;;;;;;2.33;0.60;;;23.70;99.90;;;;;;5010088;28;20038;-72
2021/12/02 08:32:42;;;;;;;3.28;0.43;;;23.70;99.90;;;;;;5010196;28;20063;-71
2021/12/02 08:35:12;;;;;;;2.53;0.57;;;23.70;99.90;;;;;;5009596;28;20021;-68
2021/12/02 08:37:49;;;;;;;4.72;0.70;;;23.60;99.90;;;;;;5009533;28;20283;-73
2021/12/02 08:40:29;;;;;;;3.17;0.60;;;23.50;99.90;;;;;;5007913;28;20037;-69
2021/12/02 08:42:56;;;;;;;1.83;0.47;;;23.40;99.90;;;;;;5010710;28;20056;-69
2021/12/02 08:45:24;;;;;;;2.28;0.80;;;23.30;99.90;;;;;;5009019;28;20036;-70
2021/12/02 08:47:51;;;;;;;1.65;0.50;;;23.20;99.90;;;;;;5009502;28;20143;-68
2021/12/02 08:50:21;;;;;;;4.45;1.27;;;23.20;99.90;;;;;;5012006;28;20034;-69
2021/12/02 08:52:50;;;;;;;2.67;0.63;;;23.10;99.90;;;;;;5014804;28;20025;-74
2021/12/02 08:55:19;;;;;;;1.55;0.60;;;23.10;99.90;;;;;;5012525;28;20037;-68
2021/12/02 08:57:51;;;;;;;1.45;0.47;;;23.00;99.90;;;;;;5014594;28;20100;-72
2021/12/02 09:00:25;;;;;;;3.67;0.47;;;23.00;99.90;;;;;;5013007;28;20036;-67
2021/12/02 09:02:54;;;;;;;2.38;0.50;;;22.90;99.90;;;;;;5014214;28;20041;-68
2021/12/02 09:05:22;;;;;;;2.10;0.90;;;22.90;99.90;;;;;;5010396;28;20734;-67
2021/12/02 09:07:49;;;;;;;4.05;0.82;;;22.90;99.90;;;;;;5013558;28;20022;-73
2021/12/02 09:10:21;;;;;;;4.68;0.70;;;22.90;99.90;;;;;;5012803;28;20163;-67
2021/12/02 09:12:49;;;;;;;1.60;0.50;;;22.90;99.90;;;;;;5011307;28;20034;-69
2021/12/02 09:15:17;;;;;;;4.78;0.73;;;22.90;99.90;;;;;;5008898;28;20033;-69
2021/12/02 09:17:45;;;;;;;3.30;0.73;;;22.80;99.90;;;;;;5008537;28;20045;-65
2021/12/02 09:20:15;;;;;;;6.20;1.05;;;22.80;99.90;;;;;;5008014;28;20029;-68
2021/12/02 09:22:43;;;;;;;4.50;0.57;;;22.80;99.90;;;;;;5007040;28;20041;-70
2021/12/02 09:25:12;;;;;;;1.52;0.43;;;22.80;99.90;;;;;;5009120;28;20065;-69
2021/12/02 09:27:39;;;;;;;3.60;0.75;;;22.80;99.90;;;;;;5008580;28;20052;-66
2021/12/02 09:30:08;;;;;;;3.90;0.65;;;22.80;99.90;;;;;;5010370;28;20021;-67
2021/12/02 09:32:36;;;;;;;3.05;0.70;;;22.70;99.90;;;;;;5010772;28;20478;-68
2021/12/02 09:35:06;;;;;;;4.05;0.80;;;22.60;99.90;;;;;;5013474;28;20474;-67
2021/12/02 09:37:33;;;;;;;3.53;0.85;;;22.60;99.90;;;;;;5007536;28;21473;-70
2021/12/02 09:40:00;;;;;;;4.63;0.80;;;22.60;99.90;;;;;;5010742;28;20025;-66
2021/12/02 09:42:28;;;;;;;2.63;0.93;;;22.60;99.90;;;;;;5006731;28;20029;-68
2021/12/02 09:45:00;;;;;;;5.55;1.17;;;22.60;99.90;;;;;;5008951;28;20061;-67
2021/12/02 09:47:33;;;;;;;4.88;1.15;;;22.50;99.90;;;;;;5007012;28;20064;-69
2021/12/02 09:50:06;;;;;;;2.30;0.70;;;22.50;99.90;;;;;;5009230;28;20030;-69
2021/12/02 09:52:36;;;;;;;2.15;0.60;;;22.50;99.90;;;;;;5010313;28;20029;-71
2021/12/02 09:55:35;;;;;;;2.88;0.80;;;22.40;99.90;;;;;;5012490;28;20040;-71
2021/12/02 09:57:56;;;;;;;3.42;0.70;;;22.50;99.90;;;;;;5012165;28;20429;-69
2021/12/02 10:00:38;;;;;;;3.50;0.60;;;22.40;99.90;;;;;;5012357;28;20116;-73
2021/12/02 10:03:28;;;;;;;4.82;0.70;;;22.40;99.90;;;;;;5015361;28;20096;-71
2021/12/02 10:06:01;;;;;;;5.15;0.75;;;22.30;99.90;;;;;;5017356;28;20372;-69
2021/12/02 10:08:33;;;;;;;1.92;0.60;;;22.30;99.90;;;;;;5017192;28;20036;-76
2021/12/02 10:11:03;;;;;;;4.43;1.33;;;22.30;99.90;;;;;;5018201;28;20243;-73
2021/12/02 10:13:39;;;;;;;4.03;1.30;;;22.20;99.90;;;;;;5016794;28;20039;-74
2021/12/02 10:16:06;;;;;;;3.20;0.70;;;22.20;99.90;;;;;;5018480;28;20083;-78
2021/12/02 10:21:28;;;;;;;4.10;0.75;;;22.20;99.90;;;;;;5021885;28;20041;-77
2021/12/02 10:24:00;;;;;;;4.88;0.88;;;22.20;99.90;;;;;;5025168;28;20037;-78
2021/12/02 10:26:27;;;;;;;2.70;0.70;;;22.10;99.90;;;;;;5025669;28;20537;-68
2021/12/02 10:28:54;;;;;;;4.53;0.90;;;22.20;99.90;;;;;;5027777;28;20101;-76
2021/12/02 10:31:25;;;;;;;8.52;1.35;;;22.20;99.90;;;;;;5028296;28;20024;-67
2021/12/02 10:33:57;;;;;;;3.53;0.85;;;22.20;99.90;;;;;;5027423;28;20033;-69
2021/12/02 10:36:25;;;;;;;3.38;0.98;;;22.20;99.90;;;;;;5030554;28;20043;-73
2021/12/02 10:38:53;;;;;;;4.10;1.08;;;22.20;99.90;;;;;;5030853;28;20028;-69
2021/12/02 10:41:24;;;;;;;5.68;1.05;;;22.20;99.90;;;;;;5028128;28;20470;-73
2021/12/02 10:44:15;;;;;;;5.20;0.93;;;22.20;99.90;;;;;;5029156;28;20017;-66
2021/12/02 10:47:01;;;;;;;8.07;1.08;;;22.20;99.90;;;;;;5029107;28;20017;-69
2021/12/02 10:49:35;;;;;;;5.07;1.13;;;22.20;99.90;;;;;;5028970;28;20036;-66
2021/12/02 10:52:06;;;;;;;5.80;0.90;;;22.10;99.90;;;;;;5028931;28;20021;-69
2021/12/02 10:54:36;;;;;;;4.68;0.95;;;22.20;99.90;;;;;;5029505;28;20026;-76
2021/12/02 10:57:13;;;;;;;6.75;1.00;;;22.10;99.90;;;;;;5031183;28;20032;-66
2021/12/02 10:59:47;;;;;;;8.10;1.90;;;22.10;99.90;;;;;;5025864;28;20018;-69
2021/12/02 11:02:39;;;;;;;5.53;1.17;;;22.10;99.90;;;;;;5029888;28;20549;-72
2021/12/02 11:05:11;;;;;;;4.97;0.70;;;22.10;99.90;;;;;;5029633;28;20047;-68
2021/12/02 11:07:42;;;;;;;9.13;1.10;;;22.00;99.90;;;;;;5022804;28;20542;-69
2021/12/02 11:10:16;;;;;;;3.53;0.90;;;22.00;99.90;;;;;;5031373;28;20029;-69
2021/12/02 11:12:46;;;;;;;5.43;1.00;;;22.00;99.90;;;;;;5027042;28;20492;-72
2021/12/02 11:15:14;;;;;;;4.40;0.75;;;22.00;99.90;;;;;;5029550;28;20037;-69
2021/12/02 11:17:51;;;;;;;3.40;1.20;;;22.00;99.90;;;;;;5029991;28;20040;-73
2021/12/02 11:20:24;;;;;;;4.90;0.90;;;22.00;99.90;;;;;;5025593;28;20104;-71
2021/12/02 11:23:17;;;;;;;3.92;1.10;;;22.00;99.90;;;;;;5028280;28;20071;-72
2021/12/02 11:26:08;;;;;;;3.08;0.77;;;22.00;99.90;;;;;;5026835;28;20381;-66
2021/12/02 11:28:38;;;;;;;3.03;0.70;;;22.00;99.90;;;;;;5030066;28;20513;-66
2021/12/02 11:31:14;;;;;;;3.78;1.48;;;21.90;99.90;;;;;;5030674;28;20129;-70
2021/12/02 11:33:43;;;;;;;5.88;1.25;;;21.90;99.90;;;;;;5027730;28;20529;-67
2021/12/02 11:36:28;;;;;;;2.70;0.90;;;21.90;99.90;;;;;;5030168;28;20033;-67
2021/12/02 11:38:58;;;;;;;3.33;0.90;;;21.90;99.90;;;;;;4999902;28;20049;-69
2021/12/02 11:41:27;;;;;;;4.90;1.15;;;21.90;99.90;;;;;;5001591;28;20022;-69
2021/12/02 11:43:54;;;;;;;2.15;0.60;;;21.90;99.90;;;;;;4999379;28;20036;-68
2021/12/02 11:46:23;;;;;;;5.47;0.88;;;21.90;99.90;;;;;;5000676;28;20029;-69
2021/12/02 11:48:50;;;;;;;2.80;0.90;;;21.80;99.90;;;;;;4998927;28;20497;-67
2021/12/02 11:51:22;;;;;;;5.10;0.90;;;21.80;99.90;;;;;;5000960;28;20026;-66
2021/12/02 11:53:50;;;;;;;3.08;1.35;;;21.80;99.90;;;;;;4998862;28;20089;-68
2021/12/02 11:56:20;;;;;;;5.57;0.93;;;21.80;99.90;;;;;;5000623;28;20038;-65
2021/12/02 11:58:49;;;;;;;1.88;0.80;;;21.80;99.90;;;;;;4999884;28;20037;-68
2021/12/02 12:01:25;;;;;;;3.92;0.70;;;21.70;99.90;;;;;;5000967;28;20048;-68
2021/12/02 12:04:08;;;;;;;2.53;0.60;;;21.70;99.90;;;;;;4999276;28;20026;-66
2021/12/02 12:06:41;;;;;;;2.78;0.80;;;21.70;99.90;;;;;;5000130;28;20687;-67
2021/12/02 12:09:11;;;;;;;;;;;21.70;99.90;;;;;;4998669;28;20114;-67
2021/12/02 12:11:45;;;;;;;4.78;0.60;;;21.70;99.90;;;;;;5000274;28;19913;-66
2021/12/02 12:14:19;;;;;;;3.10;0.90;;;21.70;99.90;;;;;;5000214;28;20034;-66
2021/12/02 12:17:03;;;;;;;4.97;1.02;;;21.70;99.90;;;;;;4998571;28;20038;-66
2021/12/02 12:19:33;;;;;;;2.88;0.80;;;21.70;99.90;;;;;;5000870;28;20056;-67
2021/12/02 12:22:32;;;;;;;5.57;0.95;;;21.70;99.90;;;;;;4998844;28;20053;-67
2021/12/02 12:25:04;;;;;;;3.55;0.70;;;21.60;99.90;;;;;;4998917;28;20079;-66
2021/12/02 12:27:34;;;;;;;6.20;0.77;;;21.60;99.90;;;;;;5000803;28;20022;-65
2021/12/02 12:30:09;;;;;;;2.50;0.73;;;21.60;99.90;;;;;;4998761;28;20037;-68
2021/12/02 12:32:53;;;;;;;3.22;0.68;;;21.50;99.90;;;;;;5000308;28;20116;-68
2021/12/02 12:35:53;;;;;;;4.30;0.80;;;21.50;99.90;;;;;;4999946;28;20022;-65
2021/12/02 12:38:25;;;;;;;3.35;0.60;;;21.50;99.90;;;;;;5000643;28;20144;-65
2021/12/02 12:40:57;;;;;;;5.57;0.90;;;21.50;99.90;;;;;;4998986;28;20475;-67
2021/12/02 12:43:44;;;;;;;1.77;0.63;;;21.50;99.90;;;;;;5000180;28;20025;-68
2021/12/02 12:46:21;;;;;;;4.82;0.52;;;21.40;99.90;;;;;;4998384;28;20365;-66
2021/12/02 12:48:50;;;;;;;1.65;0.80;;;21.50;99.90;;;;;;5000319;28;20026;-66
2021/12/02 12:51:35;;;;;;;3.35;0.70;;;21.50;99.90;;;;;;4998365;28;20030;-68
2021/12/02 12:54:06;;;;;;;3.03;0.80;;;21.50;99.90;;;;;;4997242;28;20025;-67
2021/12/02 12:56:37;;;;;;;5.05;1.05;;;21.50;99.90;;;;;;4999504;28;20026;-65
2021/12/02 12:59:14;;;;;;;7.63;0.77;;;21.50;99.90;;;;;;4998264;28;20100;-65
2021/12/02 13:01:54;;;;;;;5.95;0.85;;;21.50;99.90;;;;;;4999884;28;20053;-65
2021/12/02 13:04:25;;;;;;;3.35;1.00;;;21.50;99.90;;;;;;4999006;28;20021;-67
2021/12/02 13:07:09;;;;;;;3.95;0.80;;;21.50;99.90;;;;;;4999555;28;20478;-66
2021/12/02 13:10:21;;;;;;;4.93;0.75;;;21.40;99.90;;;;;;4999510;28;20033;-67
2021/12/02 13:12:51;;;;;;;2.10;0.68;;;21.50;99.90;;;;;;4957239;28;20023;-67
2021/12/02 13:15:25;;;;;;;3.25;0.68;;;21.40;99.90;;;;;;4955742;28;20472;-68
2021/12/02 13:17:56;;;;;;;2.38;0.88;;;21.40;99.90;;;;;;4982180;28;20053;-67
2021/12/02 13:20:30;;;;;;;4.78;0.98;;;21.40;99.90;;;;;;4998588;28;20029;-66
2021/12/02 13:23:15;;;;;;;3.15;0.73;;;21.40;99.90;;;;;;4999274;28;20125;-66
2021/12/02 13:25:53;;;;;;;4.07;0.80;;;21.40;99.90;;;;;;4999556;28;20022;-66
2021/12/02 13:28:28;;;;;;;3.13;1.05;;;21.30;99.90;;;;;;4997560;28;20236;-66
2021/12/02 13:31:03;;;;;;;3.33;0.73;;;21.30;99.90;;;;;;4999291;28;20029;-66
2021/12/02 13:33:39;;;;;;;2.85;0.80;;;21.40;99.90;;;;;;4998971;28;20037;-65
2021/12/02 13:36:09;;;;;;;3.15;0.70;;;21.40;99.90;;;;;;4996769;28;20026;-67